sensor_id;sensor_type;location;lat;lon;timestamp;pressure;altitude;pressure_sealevel;temperature;humidity
64602;BME280;68371;42.630;23.192;2023-04-01T00:01:07;91514.59;;;12.32;46.00
64602;BME280;68371;42.630;23.192;2023-04-01T00:03:34;91514.25;;;12.37;45.65
64602;BME280;68371;42.630;23.192;2023-04-01T00:06:01;91507.53;;;12.47;45.10
64602;BME280;68371;42.630;23.192;2023-04-01T00:08:28;91506.38;;;12.44;45.07
64602;BME280;68371;42.630;23.192;2023-04-01T00:10:55;91512.41;;;12.45;45.80
64602;BME280;68371;42.630;23.192;2023-04-01T00:13:23;91503.69;;;12.33;45.19
64602;BME280;68371;42.630;23.192;2023-04-01T00:15:52;91513.13;;;12.38;45.00
64602;BME280;68371;42.630;23.192;2023-04-01T00:18:19;91521.44;;;12.43;45.42
64602;BME280;68371;42.630;23.192;2023-04-01T00:20:47;91510.47;;;12.34;45.98
64602;BME280;68371;42.630;23.192;2023-04-01T00:23:15;91499.94;;;12.31;46.07
64602;BME280;68371;42.630;23.192;2023-04-01T00:25:44;91514.28;;;12.44;45.32
64602;BME280;68371;42.630;23.192;2023-04-01T00:28:13;91508.22;;;12.33;45.20
64602;BME280;68371;42.630;23.192;2023-04-01T00:30:40;91511.16;;;12.24;45.78
64602;BME280;68371;42.630;23.192;2023-04-01T00:33:08;91496.16;;;12.32;45.63
64602;BME280;68371;42.630;23.192;2023-04-01T00:35:35;91495.41;;;12.31;45.64
64602;BME280;68371;42.630;23.192;2023-04-01T00:38:02;91493.53;;;12.32;46.04
64602;BME280;68371;42.630;23.192;2023-04-01T00:40:31;91492.03;;;12.34;45.73
64602;BME280;68371;42.630;23.192;2023-04-01T00:42:59;91484.09;;;12.27;45.63
64602;BME280;68371;42.630;23.192;2023-04-01T00:45:33;91484.38;;;12.11;45.92
64602;BME280;68371;42.630;23.192;2023-04-01T00:48:03;91493.00;;;12.08;46.30
64602;BME280;68371;42.630;23.192;2023-04-01T00:50:33;91488.06;;;12.03;46.40
64602;BME280;68371;42.630;23.192;2023-04-01T00:53:01;91486.19;;;12.03;46.65
64602;BME280;68371;42.630;23.192;2023-04-01T00:55:30;91481.34;;;12.09;47.31
64602;BME280;68371;42.630;23.192;2023-04-01T00:57:59;91463.63;;;12.02;46.39
64602;BME280;68371;42.630;23.192;2023-04-01T01:00:26;91470.53;;;12.21;47.41
64602;BME280;68371;42.630;23.192;2023-04-01T01:02:53;91460.31;;;12.16;45.30
64602;BME280;68371;42.630;23.192;2023-04-01T01:05:25;91447.94;;;12.20;45.22
64602;BME280;68371;42.630;23.192;2023-04-01T01:08:02;91446.78;;;12.18;45.58
64602;BME280;68371;42.630;23.192;2023-04-01T01:10:33;91442.63;;;12.10;45.22
64602;BME280;68371;42.630;23.192;2023-04-01T01:13:07;91441.88;;;12.09;45.05
64602;BME280;68371;42.630;23.192;2023-04-01T01:15:41;91437.31;;;12.02;45.11
64602;BME280;68371;42.630;23.192;2023-04-01T01:18:18;91426.78;;;12.02;45.60
64602;BME280;68371;42.630;23.192;2023-04-01T01:24:05;91406.81;;;11.98;46.54
64602;BME280;68371;42.630;23.192;2023-04-01T01:26:45;91402.22;;;11.84;45.76
64602;BME280;68371;42.630;23.192;2023-04-01T01:32:12;91414.56;;;11.80;45.25
64602;BME280;68371;42.630;23.192;2023-04-01T01:34:48;91413.03;;;11.75;45.65
64602;BME280;68371;42.630;23.192;2023-04-01T01:37:24;91418.75;;;11.85;44.78
64602;BME280;68371;42.630;23.192;2023-04-01T01:39:56;91419.06;;;11.79;44.62
64602;BME280;68371;42.630;23.192;2023-04-01T01:42:25;91427.84;;;11.91;44.57
64602;BME280;68371;42.630;23.192;2023-04-01T01:44:53;91417.63;;;11.86;45.29
64602;BME280;68371;42.630;23.192;2023-04-01T01:47:22;91418.44;;;11.93;43.60
64602;BME280;68371;42.630;23.192;2023-04-01T01:49:50;91396.66;;;12.00;43.72
64602;BME280;68371;42.630;23.192;2023-04-01T01:52:18;91400.06;;;11.97;44.68
64602;BME280;68371;42.630;23.192;2023-04-01T01:54:50;91404.22;;;12.01;44.23
64602;BME280;68371;42.630;23.192;2023-04-01T01:57:20;91404.97;;;12.02;43.68
64602;BME280;68371;42.630;23.192;2023-04-01T01:59:54;91395.94;;;12.03;44.18
64602;BME280;68371;42.630;23.192;2023-04-01T02:02:24;91391.78;;;11.98;44.14
64602;BME280;68371;42.630;23.192;2023-04-01T02:04:53;91385.81;;;12.05;44.32
64602;BME280;68371;42.630;23.192;2023-04-01T02:07:23;91391.06;;;12.05;44.54
64602;BME280;68371;42.630;23.192;2023-04-01T02:09:53;91389.59;;;12.11;43.95
64602;BME280;68371;42.630;23.192;2023-04-01T02:12:21;91386.91;;;12.04;43.47
64602;BME280;68371;42.630;23.192;2023-04-01T02:14:52;91388.09;;;12.07;43.16
64602;BME280;68371;42.630;23.192;2023-04-01T02:17:24;91377.56;;;12.07;44.16
64602;BME280;68371;42.630;23.192;2023-04-01T02:19:56;91361.00;;;12.10;43.10
64602;BME280;68371;42.630;23.192;2023-04-01T02:22:26;91379.06;;;12.11;43.31
64602;BME280;68371;42.630;23.192;2023-04-01T02:25:03;91382.44;;;12.08;43.62
64602;BME280;68371;42.630;23.192;2023-04-01T02:27:31;91380.94;;;12.14;43.38
64602;BME280;68371;42.630;23.192;2023-04-01T02:29:58;91371.19;;;12.15;42.57
64602;BME280;68371;42.630;23.192;2023-04-01T02:32:27;91383.25;;;12.19;43.10
64602;BME280;68371;42.630;23.192;2023-04-01T02:34:55;91380.19;;;12.10;43.04
64602;BME280;68371;42.630;23.192;2023-04-01T02:37:25;91373.03;;;12.07;42.77
64602;BME280;68371;42.630;23.192;2023-04-01T02:39:51;91383.19;;;12.12;43.10
64602;BME280;68371;42.630;23.192;2023-04-01T02:42:19;91382.06;;;12.10;42.79
64602;BME280;68371;42.630;23.192;2023-04-01T02:44:46;91382.81;;;12.10;42.78
64602;BME280;68371;42.630;23.192;2023-04-01T02:47:13;91400.47;;;12.06;43.57
64602;BME280;68371;42.630;23.192;2023-04-01T02:49:40;91402.06;;;12.21;42.97
64602;BME280;68371;42.630;23.192;2023-04-01T02:52:07;91396.38;;;12.12;44.14
64602;BME280;68371;42.630;23.192;2023-04-01T02:54:33;91403.84;;;12.03;43.22
64602;BME280;68371;42.630;23.192;2023-04-01T02:57:00;91415.19;;;12.14;43.68
64602;BME280;68371;42.630;23.192;2023-04-01T02:59:28;91417.03;;;12.10;43.99
64602;BME280;68371;42.630;23.192;2023-04-01T03:01:54;91417.78;;;12.07;45.24
64602;BME280;68371;42.630;23.192;2023-04-01T03:04:21;91423.34;;;11.95;46.03
64602;BME280;68371;42.630;23.192;2023-04-01T03:06:48;91408.69;;;11.97;45.53
64602;BME280;68371;42.630;23.192;2023-04-01T03:09:15;91400.09;;;12.00;45.94
64602;BME280;68371;42.630;23.192;2023-04-01T03:11:41;91414.38;;;12.03;45.21
64602;BME280;68371;42.630;23.192;2023-04-01T03:14:08;91439.88;;;11.92;46.32
64602;BME280;68371;42.630;23.192;2023-04-01T03:16:36;91437.16;;;11.85;47.60
64602;BME280;68371;42.630;23.192;2023-04-01T03:19:03;91435.50;;;11.66;49.76
64602;BME280;68371;42.630;23.192;2023-04-01T03:21:29;91433.22;;;11.60;51.15
64602;BME280;68371;42.630;23.192;2023-04-01T03:23:57;91429.44;;;11.54;53.45
64602;BME280;68371;42.630;23.192;2023-04-01T03:26:24;91411.75;;;11.55;54.45
64602;BME280;68371;42.630;23.192;2023-04-01T03:28:52;91402.38;;;11.54;55.78
64602;BME280;68371;42.630;23.192;2023-04-01T03:31:19;91392.47;;;11.36;59.28
64602;BME280;68371;42.630;23.192;2023-04-01T03:33:47;91381.59;;;11.38;58.77
64602;BME280;68371;42.630;23.192;2023-04-01T03:36:13;91374.66;;;11.19;60.11
64602;BME280;68371;42.630;23.192;2023-04-01T03:38:41;91364.63;;;11.32;60.66
64602;BME280;68371;42.630;23.192;2023-04-01T03:41:11;91360.06;;;11.21;59.56
64602;BME280;68371;42.630;23.192;2023-04-01T03:43:38;91342.09;;;11.31;59.43
64602;BME280;68371;42.630;23.192;2023-04-01T03:46:05;91331.97;;;11.33;61.81
64602;BME280;68371;42.630;23.192;2023-04-01T03:48:32;91319.25;;;11.42;61.77
64602;BME280;68371;42.630;23.192;2023-04-01T03:51:00;91317.38;;;11.42;62.01
64602;BME280;68371;42.630;23.192;2023-04-01T03:53:27;91301.97;;;11.41;62.37
64602;BME280;68371;42.630;23.192;2023-04-01T03:55:54;91291.41;;;11.37;62.84
64602;BME280;68371;42.630;23.192;2023-04-01T03:58:21;91282.25;;;11.13;63.97
64602;BME280;68371;42.630;23.192;2023-04-01T04:00:48;91287.34;;;10.92;63.02
64602;BME280;68371;42.630;23.192;2023-04-01T04:03:14;91283.72;;;10.62;64.24
64602;BME280;68371;42.630;23.192;2023-04-01T04:05:46;91283.38;;;10.68;63.42
64602;BME280;68371;42.630;23.192;2023-04-01T04:08:15;91242.97;;;10.35;60.54
64602;BME280;68371;42.630;23.192;2023-04-01T04:10:42;91263.63;;;10.40;60.83
64602;BME280;68371;42.630;23.192;2023-04-01T04:13:08;91268.28;;;10.57;58.21
64602;BME280;68371;42.630;23.192;2023-04-01T04:15:35;91273.75;;;10.79;54.48
64602;BME280;68371;42.630;23.192;2023-04-01T04:18:02;91273.34;;;10.77;53.06
64602;BME280;68371;42.630;23.192;2023-04-01T04:20:29;91261.06;;;10.92;52.71
64602;BME280;68371;42.630;23.192;2023-04-01T04:22:56;91258.91;;;11.01;52.69
64602;BME280;68371;42.630;23.192;2023-04-01T04:25:24;91260.03;;;11.03;51.57
64602;BME280;68371;42.630;23.192;2023-04-01T05:18:21;91179.28;;;11.85;43.28
64602;BME280;68371;42.630;23.192;2023-04-01T05:20:48;91175.53;;;11.82;43.42
64602;BME280;68371;42.630;23.192;2023-04-01T05:23:15;91186.81;;;11.86;44.95
64602;BME280;68371;42.630;23.192;2023-04-01T05:25:42;91185.38;;;11.92;43.59
64602;BME280;68371;42.630;23.192;2023-04-01T05:28:10;91183.84;;;11.91;43.52
64602;BME280;68371;42.630;23.192;2023-04-01T05:30:39;91189.50;;;11.97;43.00
64602;BME280;68371;42.630;23.192;2023-04-01T05:33:06;91188.41;;;12.09;43.04
64602;BME280;68371;42.630;23.192;2023-04-01T05:35:34;91186.91;;;12.11;43.35
64602;BME280;68371;42.630;23.192;2023-04-01T05:38:01;91194.41;;;12.16;43.97
64602;BME280;68371;42.630;23.192;2023-04-01T05:40:27;91182.03;;;12.24;44.35
64602;BME280;68371;42.630;23.192;2023-04-01T05:42:54;91177.50;;;12.28;42.94
64602;BME280;68371;42.630;23.192;2023-04-01T05:45:21;91170.75;;;12.23;43.67
64602;BME280;68371;42.630;23.192;2023-04-01T05:47:49;91162.50;;;12.29;44.08
64602;BME280;68371;42.630;23.192;2023-04-01T05:50:15;91164.38;;;12.46;43.17
64602;BME280;68371;42.630;23.192;2023-04-01T05:52:44;91157.59;;;12.45;44.07
64602;BME280;68371;42.630;23.192;2023-04-01T05:55:11;91165.50;;;12.70;41.91
64602;BME280;68371;42.630;23.192;2023-04-01T05:57:37;91163.97;;;12.76;43.39
64602;BME280;68371;42.630;23.192;2023-04-01T06:00:05;91159.06;;;12.96;41.14
64602;BME280;68371;42.630;23.192;2023-04-01T06:02:32;91156.78;;;13.13;41.48
64602;BME280;68371;42.630;23.192;2023-04-01T06:05:03;91160.50;;;13.37;40.54
64602;BME280;68371;42.630;23.192;2023-04-01T06:07:36;91157.06;;;13.51;41.49
64602;BME280;68371;42.630;23.192;2023-04-01T06:10:10;91152.09;;;13.71;40.08
64602;BME280;68371;42.630;23.192;2023-04-01T06:12:47;91145.66;;;13.72;39.42
64602;BME280;68371;42.630;23.192;2023-04-01T06:15:25;91156.63;;;13.67;39.72
64602;BME280;68371;42.630;23.192;2023-04-01T06:18:08;91161.88;;;13.70;41.36
64602;BME280;68371;42.630;23.192;2023-04-01T06:20:43;91169.44;;;13.68;40.43
64602;BME280;68371;42.630;23.192;2023-04-01T06:23:29;91168.31;;;13.69;40.60
64602;BME280;68371;42.630;23.192;2023-04-01T06:26:08;91164.94;;;13.61;40.23
64602;BME280;68371;42.630;23.192;2023-04-01T06:29:01;91148.72;;;13.63;40.87
64602;BME280;68371;42.630;23.192;2023-04-01T06:31:51;91159.66;;;13.69;40.50
64602;BME280;68371;42.630;23.192;2023-04-01T06:34:42;91146.84;;;13.56;42.14
64602;BME280;68371;42.630;23.192;2023-04-01T06:37:28;91137.81;;;13.54;41.91
64602;BME280;68371;42.630;23.192;2023-04-01T06:40:29;91137.06;;;13.57;41.51
64602;BME280;68371;42.630;23.192;2023-04-01T06:43:07;91122.06;;;13.39;40.75
64602;BME280;68371;42.630;23.192;2023-04-01T06:45:41;91134.88;;;13.45;40.89
64602;BME280;68371;42.630;23.192;2023-04-01T06:48:31;91140.09;;;13.48;41.46
64602;BME280;68371;42.630;23.192;2023-04-01T06:51:09;91142.72;;;13.52;40.74
64602;BME280;68371;42.630;23.192;2023-04-01T06:53:42;91138.25;;;13.45;40.12
64602;BME280;68371;42.630;23.192;2023-04-01T06:56:17;91139.75;;;13.46;41.47
64602;BME280;68371;42.630;23.192;2023-04-01T06:58:48;91130.34;;;13.45;40.25
64602;BME280;68371;42.630;23.192;2023-04-01T07:01:21;91131.81;;;13.46;39.94
64602;BME280;68371;42.630;23.192;2023-04-01T07:03:52;91130.72;;;13.43;40.94
64602;BME280;68371;42.630;23.192;2023-04-01T07:06:25;91124.31;;;13.41;41.53
64602;BME280;68371;42.630;23.192;2023-04-01T07:08:55;91128.81;;;13.48;41.12
64602;BME280;68371;42.630;23.192;2023-04-01T07:11:29;91127.31;;;13.43;41.84
64602;BME280;68371;42.630;23.192;2023-04-01T07:14:01;91125.06;;;13.45;40.57
64602;BME280;68371;42.630;23.192;2023-04-01T07:16:30;91137.50;;;13.45;41.45
64602;BME280;68371;42.630;23.192;2023-04-01T07:19:02;91133.34;;;13.51;40.93
64602;BME280;68371;42.630;23.192;2023-04-01T07:21:32;91150.66;;;13.55;41.55
64602;BME280;68371;42.630;23.192;2023-04-01T07:24:04;91149.50;;;13.56;40.75
64602;BME280;68371;42.630;23.192;2023-04-01T07:26:32;91132.53;;;13.57;40.62
64602;BME280;68371;42.630;23.192;2023-04-01T07:29:01;91125.34;;;13.61;40.86
64602;BME280;68371;42.630;23.192;2023-04-01T07:31:45;91145.31;;;13.70;40.31
64602;BME280;68371;42.630;23.192;2023-04-01T07:34:19;91146.84;;;13.63;41.03
64602;BME280;68371;42.630;23.192;2023-04-01T07:36:56;91140.81;;;13.63;41.12
64602;BME280;68371;42.630;23.192;2023-04-01T07:39:35;91144.56;;;13.62;42.22
64602;BME280;68371;42.630;23.192;2023-04-01T07:42:13;91140.09;;;13.59;41.89
64602;BME280;68371;42.630;23.192;2023-04-01T07:44:51;91144.22;;;13.56;42.19
64602;BME280;68371;42.630;23.192;2023-04-01T07:47:30;91134.03;;;13.62;41.16
64602;BME280;68371;42.630;23.192;2023-04-01T07:50:08;91134.00;;;13.66;41.18
64602;BME280;68371;42.630;23.192;2023-04-01T07:52:42;91127.28;;;13.54;42.39
64602;BME280;68371;42.630;23.192;2023-04-01T07:55:14;91127.25;;;13.57;42.26
64602;BME280;68371;42.630;23.192;2023-04-01T07:57:48;91123.06;;;13.67;42.40
64602;BME280;68371;42.630;23.192;2023-04-01T08:00:20;91122.34;;;13.59;42.66
64602;BME280;68371;42.630;23.192;2023-04-01T08:03:03;91105.41;;;13.53;41.93
64602;BME280;68371;42.630;23.192;2023-04-01T08:05:40;91109.16;;;13.63;43.13
64602;BME280;68371;42.630;23.192;2023-04-01T08:08:12;91105.72;;;13.66;43.15
64602;BME280;68371;42.630;23.192;2023-04-01T08:10:48;91113.63;;;13.73;44.46
64602;BME280;68371;42.630;23.192;2023-04-01T08:13:25;91097.84;;;13.62;43.29
64602;BME280;68371;42.630;23.192;2023-04-01T08:16:01;91095.91;;;13.70;42.85
64602;BME280;68371;42.630;23.192;2023-04-01T08:18:39;91085.03;;;13.65;41.66
64602;BME280;68371;42.630;23.192;2023-04-01T08:21:12;91085.38;;;13.67;40.99
64602;BME280;68371;42.630;23.192;2023-04-01T08:23:44;91076.31;;;13.68;41.57
64602;BME280;68371;42.630;23.192;2023-04-01T08:26:17;91062.69;;;13.80;41.11
64602;BME280;68371;42.630;23.192;2023-04-01T08:28:51;91051.75;;;13.81;41.04
64602;BME280;68371;42.630;23.192;2023-04-01T08:31:25;91047.34;;;14.13;39.92
64602;BME280;68371;42.630;23.192;2023-04-01T08:33:57;91041.66;;;14.21;41.37
64602;BME280;68371;42.630;23.192;2023-04-01T08:36:28;91024.25;;;14.28;39.38
64602;BME280;68371;42.630;23.192;2023-04-01T08:39:02;91020.69;;;14.41;39.54
64602;BME280;68371;42.630;23.192;2023-04-01T08:41:48;91026.78;;;14.38;40.50
64602;BME280;68371;42.630;23.192;2023-04-01T08:44:39;91023.41;;;14.38;39.40
64602;BME280;68371;42.630;23.192;2023-04-01T08:47:34;91023.44;;;14.31;38.59
64602;BME280;68371;42.630;23.192;2023-04-01T08:50:36;91012.47;;;14.36;39.69
64602;BME280;68371;42.630;23.192;2023-04-01T08:53:15;91027.25;;;14.30;39.38
64602;BME280;68371;42.630;23.192;2023-04-01T08:55:51;91013.22;;;14.36;39.70
64602;BME280;68371;42.630;23.192;2023-04-01T09:01:37;91010.13;;;14.41;39.98
64602;BME280;68371;42.630;23.192;2023-04-01T09:04:24;91020.28;;;14.47;40.47
64602;BME280;68371;42.630;23.192;2023-04-01T09:07:00;91029.28;;;14.56;39.04
64602;BME280;68371;42.630;23.192;2023-04-01T09:09:56;91019.81;;;14.59;39.17
64602;BME280;68371;42.630;23.192;2023-04-01T09:12:45;91010.78;;;14.56;39.05
64602;BME280;68371;42.630;23.192;2023-04-01T09:15:37;91017.97;;;14.52;39.72
64602;BME280;68371;42.630;23.192;2023-04-01T09:18:19;91010.78;;;14.53;39.79
64602;BME280;68371;42.630;23.192;2023-04-01T09:21:04;91012.72;;;14.49;39.44
64602;BME280;68371;42.630;23.192;2023-04-01T09:23:43;91014.97;;;14.50;41.24
64602;BME280;68371;42.630;23.192;2023-04-01T09:26:48;91007.91;;;14.40;42.32
64602;BME280;68371;42.630;23.192;2023-04-01T09:29:40;91003.03;;;14.35;41.13
64602;BME280;68371;42.630;23.192;2023-04-01T09:32:30;91000.84;;;14.26;41.51
64602;BME280;68371;42.630;23.192;2023-04-01T09:35:14;90996.69;;;14.25;42.33
64602;BME280;68371;42.630;23.192;2023-04-01T09:37:53;90991.41;;;14.25;41.38
64602;BME280;68371;42.630;23.192;2023-04-01T09:40:25;90984.69;;;14.17;42.16
64602;BME280;68371;42.630;23.192;2023-04-01T09:43:16;90981.34;;;14.13;42.87
64602;BME280;68371;42.630;23.192;2023-04-01T09:45:56;90979.03;;;14.18;42.94
64602;BME280;68371;42.630;23.192;2023-04-01T09:48:39;90977.13;;;14.19;42.90
64602;BME280;68371;42.630;23.192;2023-04-01T09:51:20;90973.34;;;14.23;43.30
64602;BME280;68371;42.630;23.192;2023-04-01T09:54:00;90964.97;;;14.29;43.28
64602;BME280;68371;42.630;23.192;2023-04-01T09:56:51;90956.34;;;14.25;44.04
64602;BME280;68371;42.630;23.192;2023-04-01T10:05:32;90939.53;;;14.46;43.79
64602;BME280;68371;42.630;23.192;2023-04-01T10:11:14;90930.34;;;14.57;43.43
64602;BME280;68371;42.630;23.192;2023-04-01T10:14:04;90934.72;;;14.71;42.94
64602;BME280;68371;42.630;23.192;2023-04-01T10:19:55;90917.47;;;14.63;44.10
64602;BME280;68371;42.630;23.192;2023-04-01T10:22:47;90917.44;;;14.67;42.28
64602;BME280;68371;42.630;23.192;2023-04-01T10:25:50;90908.06;;;14.62;43.78
64602;BME280;68371;42.630;23.192;2023-04-01T10:28:36;90922.69;;;14.70;42.61
64602;BME280;68371;42.630;23.192;2023-04-01T10:31:31;90892.91;;;14.66;42.47
64602;BME280;68371;42.630;23.192;2023-04-01T10:37:03;90902.97;;;14.75;41.58
64602;BME280;68371;42.630;23.192;2023-04-01T10:55:45;90874.69;;;15.02;42.33
64602;BME280;68371;42.630;23.192;2023-04-01T11:04:54;90856.31;;;14.92;41.65
64602;BME280;68371;42.630;23.192;2023-04-01T11:10:46;90861.84;;;15.01;42.13
64602;BME280;68371;42.630;23.192;2023-04-01T11:13:51;90858.63;;;14.86;42.71
64602;BME280;68371;42.630;23.192;2023-04-01T11:16:48;90868.88;;;14.84;42.53
64602;BME280;68371;42.630;23.192;2023-04-01T11:20:08;90891.88;;;14.87;43.19
64602;BME280;68371;42.630;23.192;2023-04-01T11:22:57;90904.47;;;14.76;47.30
64602;BME280;68371;42.630;23.192;2023-04-01T11:29:00;90920.94;;;14.53;48.40
64602;BME280;68371;42.630;23.192;2023-04-01T11:31:36;90938.84;;;14.38;49.64
64602;BME280;68371;42.630;23.192;2023-04-01T11:34:16;90967.84;;;14.07;50.13
64602;BME280;68371;42.630;23.192;2023-04-01T11:36:57;91014.34;;;13.87;57.27
64602;BME280;68371;42.630;23.192;2023-04-01T11:39:34;91071.28;;;13.10;65.61
64602;BME280;68371;42.630;23.192;2023-04-01T11:42:14;91109.78;;;12.00;71.98
64602;BME280;68371;42.630;23.192;2023-04-01T11:44:51;91117.91;;;11.45;78.53
64602;BME280;68371;42.630;23.192;2023-04-01T11:47:33;91088.22;;;11.37;80.84
64602;BME280;68371;42.630;23.192;2023-04-01T11:50:16;91115.97;;;11.31;80.01
64602;BME280;68371;42.630;23.192;2023-04-01T11:53:07;91118.19;;;11.18;83.36
64602;BME280;68371;42.630;23.192;2023-04-01T11:55:47;91111.88;;;11.30;85.92
64602;BME280;68371;42.630;23.192;2023-04-01T11:58:27;91113.34;;;11.27;85.05
64602;BME280;68371;42.630;23.192;2023-04-01T12:01:14;91115.56;;;11.18;86.93
64602;BME280;68371;42.630;23.192;2023-04-01T12:04:27;91114.31;;;10.94;88.60
64602;BME280;68371;42.630;23.192;2023-04-01T12:07:10;91112.69;;;10.71;91.42
64602;BME280;68371;42.630;23.192;2023-04-01T12:09:49;91114.16;;;10.65;92.97
64602;BME280;68371;42.630;23.192;2023-04-01T12:12:27;91088.13;;;10.38;94.72
64602;BME280;68371;42.630;23.192;2023-04-01T12:15:05;91100.56;;;10.49;94.14
64602;BME280;68371;42.630;23.192;2023-04-01T12:17:44;91095.22;;;10.38;94.03
64602;BME280;68371;42.630;23.192;2023-04-01T12:23:17;91095.59;;;10.40;94.45
64602;BME280;68371;42.630;23.192;2023-04-01T12:26:17;91092.69;;;10.49;95.12
64602;BME280;68371;42.630;23.192;2023-04-01T12:28:55;91093.91;;;10.14;91.86
64602;BME280;68371;42.630;23.192;2023-04-01T12:31:34;91104.53;;;10.32;92.90
64602;BME280;68371;42.630;23.192;2023-04-01T12:37:12;91124.81;;;10.31;92.09
64602;BME280;68371;42.630;23.192;2023-04-01T12:39:55;91127.00;;;10.29;91.20
64602;BME280;68371;42.630;23.192;2023-04-01T12:42:40;91113.13;;;10.29;91.38
64602;BME280;68371;42.630;23.192;2023-04-01T12:45:28;91103.75;;;10.28;92.42
64602;BME280;68371;42.630;23.192;2023-04-01T12:48:28;91101.78;;;10.17;93.02
64602;BME280;68371;42.630;23.192;2023-04-01T12:51:20;91091.25;;;10.10;93.94
64602;BME280;68371;42.630;23.192;2023-04-01T12:57:06;91073.63;;;10.11;94.96
64602;BME280;68371;42.630;23.192;2023-04-01T12:59:55;91075.16;;;10.12;94.72
64602;BME280;68371;42.630;23.192;2023-04-01T13:02:37;91074.22;;;9.90;93.33
64602;BME280;68371;42.630;23.192;2023-04-01T13:05:20;91059.72;;;10.07;93.23
64602;BME280;68371;42.630;23.192;2023-04-01T13:08:00;91026.63;;;9.88;90.11
64602;BME280;68371;42.630;23.192;2023-04-01T13:10:41;91033.31;;;9.85;88.73
64602;BME280;68371;42.630;23.192;2023-04-01T13:13:25;91033.69;;;9.80;90.35
64602;BME280;68371;42.630;23.192;2023-04-01T13:15:58;91035.94;;;9.85;88.13
64602;BME280;68371;42.630;23.192;2023-04-01T13:18:37;91014.59;;;9.87;88.07
64602;BME280;68371;42.630;23.192;2023-04-01T13:21:15;91021.47;;;10.06;87.38
64602;BME280;68371;42.630;23.192;2023-04-01T13:23:56;91014.44;;;10.17;84.37
64602;BME280;68371;42.630;23.192;2023-04-01T13:26:31;91015.31;;;10.32;84.86
64602;BME280;68371;42.630;23.192;2023-04-01T13:29:04;91021.00;;;10.48;86.78
64602;BME280;68371;42.630;23.192;2023-04-01T13:31:46;91019.19;;;10.56;83.37
64602;BME280;68371;42.630;23.192;2023-04-01T13:34:26;91023.78;;;10.73;76.66
64602;BME280;68371;42.630;23.192;2023-04-01T13:37:05;91005.09;;;10.89;78.31
64602;BME280;68371;42.630;23.192;2023-04-01T13:39:46;90999.13;;;11.03;77.53
64602;BME280;68371;42.630;23.192;2023-04-01T13:42:21;90994.28;;;11.16;76.82
64602;BME280;68371;42.630;23.192;2023-04-01T13:44:55;90995.78;;;11.13;74.54
64602;BME280;68371;42.630;23.192;2023-04-01T13:47:39;90980.78;;;11.28;75.44
64602;BME280;68371;42.630;23.192;2023-04-01T13:50:30;90976.31;;;12.04;72.11
64602;BME280;68371;42.630;23.192;2023-04-01T13:53:26;90965.56;;;12.83;71.00
64602;BME280;68371;42.630;23.192;2023-04-01T13:56:03;90962.34;;;13.31;66.59
64602;BME280;68371;42.630;23.192;2023-04-01T13:58:55;90955.03;;;13.53;64.29
64602;BME280;68371;42.630;23.192;2023-04-01T14:01:31;90951.03;;;13.34;64.53
64602;BME280;68371;42.630;23.192;2023-04-01T14:07:08;90939.22;;;12.83;65.45
64602;BME280;68371;42.630;23.192;2023-04-01T14:09:45;90941.53;;;12.67;64.78
64602;BME280;68371;42.630;23.192;2023-04-01T14:12:26;90929.16;;;12.56;65.82
64602;BME280;68371;42.630;23.192;2023-04-01T14:15:20;90928.38;;;12.63;65.65
64602;BME280;68371;42.630;23.192;2023-04-01T14:18:13;90943.00;;;12.82;64.67
64602;BME280;68371;42.630;23.192;2023-04-01T14:20:48;90926.91;;;12.62;63.58
64602;BME280;68371;42.630;23.192;2023-04-01T14:23:39;90924.28;;;12.55;65.50
64602;BME280;68371;42.630;23.192;2023-04-01T14:26:16;90924.66;;;12.57;66.46
64602;BME280;68371;42.630;23.192;2023-04-01T14:28:56;90927.28;;;12.60;66.26
64602;BME280;68371;42.630;23.192;2023-04-01T14:31:39;90924.69;;;12.50;68.03
64602;BME280;68371;42.630;23.192;2023-04-01T14:34:21;90910.78;;;12.49;66.95
64602;BME280;68371;42.630;23.192;2023-04-01T14:39:52;90897.09;;;12.79;64.92
64602;BME280;68371;42.630;23.192;2023-04-01T14:48:29;90882.56;;;13.16;64.10
64602;BME280;68371;42.630;23.192;2023-04-01T14:51:04;90872.28;;;13.36;64.53
64602;BME280;68371;42.630;23.192;2023-04-01T14:53:37;90879.66;;;13.52;62.46
64602;BME280;68371;42.630;23.192;2023-04-01T14:56:08;90872.97;;;13.86;63.09
64602;BME280;68371;42.630;23.192;2023-04-01T14:58:43;90877.34;;;14.03;61.50
64602;BME280;68371;42.630;23.192;2023-04-01T15:01:21;90886.81;;;13.97;62.67
64602;BME280;68371;42.630;23.192;2023-04-01T15:03:57;90891.16;;;13.76;62.92
64602;BME280;68371;42.630;23.192;2023-04-01T15:06:41;90895.59;;;13.38;63.75
64602;BME280;68371;42.630;23.192;2023-04-01T15:09:20;90875.09;;;13.04;65.92
64602;BME280;68371;42.630;23.192;2023-04-01T15:12:05;90906.00;;;13.00;61.90
64602;BME280;68371;42.630;23.192;2023-04-01T15:14:44;90903.84;;;12.84;60.91
64602;BME280;68371;42.630;23.192;2023-04-01T15:17:27;90914.75;;;12.79;60.64
64602;BME280;68371;42.630;23.192;2023-04-01T15:20:19;90932.91;;;12.66;62.38
64602;BME280;68371;42.630;23.192;2023-04-01T15:22:57;90938.91;;;12.70;61.97
64602;BME280;68371;42.630;23.192;2023-04-01T15:25:41;90932.91;;;12.62;62.88
64602;BME280;68371;42.630;23.192;2023-04-01T15:28:20;90958.50;;;12.58;62.89
64602;BME280;68371;42.630;23.192;2023-04-01T15:30:54;90957.41;;;12.52;64.10
64602;BME280;68371;42.630;23.192;2023-04-01T15:33:43;90954.41;;;12.50;62.41
64602;BME280;68371;42.630;23.192;2023-04-01T15:36:23;90958.56;;;12.48;63.42
64602;BME280;68371;42.630;23.192;2023-04-01T15:38:54;90965.34;;;12.45;62.66
64602;BME280;68371;42.630;23.192;2023-04-01T15:41:26;90967.94;;;12.56;64.55